sensor_id;sensor_type;location;lat;lon;timestamp;temperature;humidity
63899;HTU21D;50070;-32.946;-60.652;2023-04-01T00:01:28;21.50;31.06
63899;HTU21D;50070;-32.946;-60.652;2023-04-01T00:03:54;21.14;31.83
63899;HTU21D;50070;-32.946;-60.652;2023-04-01T00:06:22;21.25;31.43
63899;HTU21D;50070;-32.946;-60.652;2023-04-01T00:08:49;21.22;31.80
63899;HTU21D;50070;-32.946;-60.652;2023-04-01T00:11:16;21.48;31.58
63899;HTU21D;50070;-32.946;-60.652;2023-04-01T00:13:43;21.49;31.67
63899;HTU21D;50070;-32.946;-60.652;2023-04-01T00:16:10;21.17;32.32
63899;HTU21D;50070;-32.946;-60.652;2023-04-01T00:18:38;21.50;31.87
63899;HTU21D;50070;-32.946;-60.652;2023-04-01T00:21:05;21.11;32.78
63899;HTU21D;50070;-32.946;-60.652;2023-04-01T00:23:32;21.23;33.05
63899;HTU21D;50070;-32.946;-60.652;2023-04-01T00:26:04;20.89;33.61
63899;HTU21D;50070;-32.946;-60.652;2023-04-01T00:28:31;21.05;33.57
63899;HTU21D;50070;-32.946;-60.652;2023-04-01T00:31:08;20.99;33.92
63899;HTU21D;50070;-32.946;-60.652;2023-04-01T00:33:35;20.94;33.83
63899;HTU21D;50070;-32.946;-60.652;2023-04-01T00:36:11;20.77;34.04
63899;HTU21D;50070;-32.946;-60.652;2023-04-01T00:38:39;21.02;33.76
63899;HTU21D;50070;-32.946;-60.652;2023-04-01T00:41:07;20.98;34.28
63899;HTU21D;50070;-32.946;-60.652;2023-04-01T00:43:34;21.04;34.40
63899;HTU21D;50070;-32.946;-60.652;2023-04-01T00:46:01;20.98;34.79
63899;HTU21D;50070;-32.946;-60.652;2023-04-01T00:48:33;20.92;34.89
63899;HTU21D;50070;-32.946;-60.652;2023-04-01T00:51:14;20.80;35.56
63899;HTU21D;50070;-32.946;-60.652;2023-04-01T00:53:44;20.88;35.62
63899;HTU21D;50070;-32.946;-60.652;2023-04-01T00:56:27;20.69;36.30
63899;HTU21D;50070;-32.946;-60.652;2023-04-01T00:59:06;20.90;36.31
63899;HTU21D;50070;-32.946;-60.652;2023-04-01T01:01:35;20.77;36.76
63899;HTU21D;50070;-32.946;-60.652;2023-04-01T01:04:02;20.69;37.43
63899;HTU21D;50070;-32.946;-60.652;2023-04-01T01:12:02;20.60;37.49
63899;HTU21D;50070;-32.946;-60.652;2023-04-01T01:15:03;21.00;36.87
63899;HTU21D;50070;-32.946;-60.652;2023-04-01T01:37:35;20.37;39.55
63899;HTU21D;50070;-32.946;-60.652;2023-04-01T01:40:13;20.40;39.69
63899;HTU21D;50070;-32.946;-60.652;2023-04-01T01:42:48;20.58;39.28
63899;HTU21D;50070;-32.946;-60.652;2023-04-01T01:45:27;20.35;39.82
63899;HTU21D;50070;-32.946;-60.652;2023-04-01T01:48:04;20.46;39.65
63899;HTU21D;50070;-32.946;-60.652;2023-04-01T01:50:32;20.58;39.16
63899;HTU21D;50070;-32.946;-60.652;2023-04-01T01:53:08;20.55;39.33
63899;HTU21D;50070;-32.946;-60.652;2023-04-01T01:55:38;20.30;39.56
63899;HTU21D;50070;-32.946;-60.652;2023-04-01T02:00:58;20.61;39.18
63899;HTU21D;50070;-32.946;-60.652;2023-04-01T02:03:30;19.96;40.55
63899;HTU21D;50070;-32.946;-60.652;2023-04-01T02:06:01;20.26;40.20
63899;HTU21D;50070;-32.946;-60.652;2023-04-01T02:08:44;20.02;40.56
63899;HTU21D;50070;-32.946;-60.652;2023-04-01T02:11:15;20.07;40.45
63899;HTU21D;50070;-32.946;-60.652;2023-04-01T02:13:47;20.11;40.53
63899;HTU21D;50070;-32.946;-60.652;2023-04-01T02:18:49;19.91;40.95
63899;HTU21D;50070;-32.946;-60.652;2023-04-01T02:21:17;20.21;40.38
63899;HTU21D;50070;-32.946;-60.652;2023-04-01T02:23:45;19.84;40.92
63899;HTU21D;50070;-32.946;-60.652;2023-04-01T02:26:13;19.72;41.46
63899;HTU21D;50070;-32.946;-60.652;2023-04-01T02:28:42;19.55;41.55
63899;HTU21D;50070;-32.946;-60.652;2023-04-01T02:31:11;19.48;41.55
63899;HTU21D;50070;-32.946;-60.652;2023-04-01T02:33:39;19.54;41.49
63899;HTU21D;50070;-32.946;-60.652;2023-04-01T02:36:10;19.42;41.91
63899;HTU21D;50070;-32.946;-60.652;2023-04-01T02:38:37;19.47;41.98
63899;HTU21D;50070;-32.946;-60.652;2023-04-01T02:41:04;19.23;42.79
63899;HTU21D;50070;-32.946;-60.652;2023-04-01T02:43:32;19.37;42.49
63899;HTU21D;50070;-32.946;-60.652;2023-04-01T02:45:59;19.30;42.84
63899;HTU21D;50070;-32.946;-60.652;2023-04-01T02:48:28;19.88;41.54
63899;HTU21D;50070;-32.946;-60.652;2023-04-01T02:50:55;19.89;41.89
63899;HTU21D;50070;-32.946;-60.652;2023-04-01T02:53:21;19.36;43.48
63899;HTU21D;50070;-32.946;-60.652;2023-04-01T02:55:48;19.44;43.55
63899;HTU21D;50070;-32.946;-60.652;2023-04-01T02:58:18;19.46;43.60
63899;HTU21D;50070;-32.946;-60.652;2023-04-01T03:00:45;19.29;44.14
63899;HTU21D;50070;-32.946;-60.652;2023-04-01T03:03:12;19.45;43.75
63899;HTU21D;50070;-32.946;-60.652;2023-04-01T03:05:39;19.31;44.19
63899;HTU21D;50070;-32.946;-60.652;2023-04-01T03:08:06;19.41;44.24
63899;HTU21D;50070;-32.946;-60.652;2023-04-01T03:10:33;19.35;44.38
63899;HTU21D;50070;-32.946;-60.652;2023-04-01T03:13:00;19.61;43.67
63899;HTU21D;50070;-32.946;-60.652;2023-04-01T03:15:27;19.53;43.09
63899;HTU21D;50070;-32.946;-60.652;2023-04-01T03:17:54;19.67;42.91
63899;HTU21D;50070;-32.946;-60.652;2023-04-01T03:20:21;19.29;43.68
63899;HTU21D;50070;-32.946;-60.652;2023-04-01T03:22:47;19.30;43.78
63899;HTU21D;50070;-32.946;-60.652;2023-04-01T03:25:14;19.01;44.64
63899;HTU21D;50070;-32.946;-60.652;2023-04-01T03:27:41;19.08;44.70
63899;HTU21D;50070;-32.946;-60.652;2023-04-01T03:30:08;19.41;44.28
63899;HTU21D;50070;-32.946;-60.652;2023-04-01T03:32:35;19.17;44.62
63899;HTU21D;50070;-32.946;-60.652;2023-04-01T03:35:02;19.18;44.86
63899;HTU21D;50070;-32.946;-60.652;2023-04-01T03:37:29;19.08;44.93
63899;HTU21D;50070;-32.946;-60.652;2023-04-01T03:39:56;18.92;45.70
63899;HTU21D;50070;-32.946;-60.652;2023-04-01T03:42:22;18.96;45.72
63899;HTU21D;50070;-32.946;-60.652;2023-04-01T03:44:49;18.79;45.35
63899;HTU21D;50070;-32.946;-60.652;2023-04-01T03:47:16;18.93;45.61
63899;HTU21D;50070;-32.946;-60.652;2023-04-01T03:49:43;19.11;44.96
63899;HTU21D;50070;-32.946;-60.652;2023-04-01T03:52:11;18.73;46.03
63899;HTU21D;50070;-32.946;-60.652;2023-04-01T03:54:38;18.65;45.84
63899;HTU21D;50070;-32.946;-60.652;2023-04-01T03:57:05;18.63;46.31
63899;HTU21D;50070;-32.946;-60.652;2023-04-01T03:59:32;18.63;45.95
63899;HTU21D;50070;-32.946;-60.652;2023-04-01T04:01:59;18.65;45.96
63899;HTU21D;50070;-32.946;-60.652;2023-04-01T04:04:27;18.83;45.44
63899;HTU21D;50070;-32.946;-60.652;2023-04-01T04:06:55;18.73;45.93
63899;HTU21D;50070;-32.946;-60.652;2023-04-01T04:09:22;18.35;46.73
63899;HTU21D;50070;-32.946;-60.652;2023-04-01T04:11:49;18.49;45.86
63899;HTU21D;50070;-32.946;-60.652;2023-04-01T04:14:17;18.29;46.69
63899;HTU21D;50070;-32.946;-60.652;2023-04-01T04:16:43;18.43;46.47
63899;HTU21D;50070;-32.946;-60.652;2023-04-01T04:19:10;18.41;46.72
63899;HTU21D;50070;-32.946;-60.652;2023-04-01T04:21:37;18.54;46.57
63899;HTU21D;50070;-32.946;-60.652;2023-04-01T04:24:04;18.66;46.20
63899;HTU21D;50070;-32.946;-60.652;2023-04-01T04:26:31;18.49;46.68
63899;HTU21D;50070;-32.946;-60.652;2023-04-01T04:28:58;18.40;46.80
63899;HTU21D;50070;-32.946;-60.652;2023-04-01T04:31:25;18.58;46.38
63899;HTU21D;50070;-32.946;-60.652;2023-04-01T04:33:52;18.54;46.32
63899;HTU21D;50070;-32.946;-60.652;2023-04-01T04:36:21;18.46;46.67
63899;HTU21D;50070;-32.946;-60.652;2023-04-01T04:38:48;18.66;45.91
63899;HTU21D;50070;-32.946;-60.652;2023-04-01T04:41:18;18.43;46.29
63899;HTU21D;50070;-32.946;-60.652;2023-04-01T04:43:55;18.40;46.48
63899;HTU21D;50070;-32.946;-60.652;2023-04-01T04:46:23;17.93;47.94
63899;HTU21D;50070;-32.946;-60.652;2023-04-01T04:48:50;17.96;48.35
63899;HTU21D;50070;-32.946;-60.652;2023-04-01T04:51:18;18.13;47.89
63899;HTU21D;50070;-32.946;-60.652;2023-04-01T04:53:46;18.46;46.86
63899;HTU21D;50070;-32.946;-60.652;2023-04-01T04:56:13;17.96;48.23
63899;HTU21D;50070;-32.946;-60.652;2023-04-01T04:58:39;18.19;47.49
63899;HTU21D;50070;-32.946;-60.652;2023-04-01T05:01:10;18.28;47.18
63899;HTU21D;50070;-32.946;-60.652;2023-04-01T05:03:37;17.93;48.30
63899;HTU21D;50070;-32.946;-60.652;2023-04-01T05:06:05;18.21;47.42
63899;HTU21D;50070;-32.946;-60.652;2023-04-01T05:08:33;17.85;48.26
63899;HTU21D;50070;-32.946;-60.652;2023-04-01T05:11:01;18.04;47.98
63899;HTU21D;50070;-32.946;-60.652;2023-04-01T05:13:28;18.14;47.59
63899;HTU21D;50070;-32.946;-60.652;2023-04-01T05:15:55;18.18;47.41
63899;HTU21D;50070;-32.946;-60.652;2023-04-01T05:18:22;17.87;48.24
63899;HTU21D;50070;-32.946;-60.652;2023-04-01T05:20:51;17.85;47.98
63899;HTU21D;50070;-32.946;-60.652;2023-04-01T05:23:19;17.68;48.55
63899;HTU21D;50070;-32.946;-60.652;2023-04-01T05:25:48;17.81;48.19
63899;HTU21D;50070;-32.946;-60.652;2023-04-01T05:28:15;18.06;46.97
63899;HTU21D;50070;-32.946;-60.652;2023-04-01T05:30:42;18.10;46.39
63899;HTU21D;50070;-32.946;-60.652;2023-04-01T05:33:10;17.98;46.94
63899;HTU21D;50070;-32.946;-60.652;2023-04-01T05:35:38;18.22;45.71
63899;HTU21D;50070;-32.946;-60.652;2023-04-01T05:38:05;17.77;47.60
63899;HTU21D;50070;-32.946;-60.652;2023-04-01T05:40:32;18.17;47.04
63899;HTU21D;50070;-32.946;-60.652;2023-04-01T05:42:59;18.13;47.02
63899;HTU21D;50070;-32.946;-60.652;2023-04-01T05:45:26;18.07;47.37
63899;HTU21D;50070;-32.946;-60.652;2023-04-01T05:47:55;18.05;47.40
63899;HTU21D;50070;-32.946;-60.652;2023-04-01T05:50:22;17.69;48.21
63899;HTU21D;50070;-32.946;-60.652;2023-04-01T05:52:48;17.94;47.89
63899;HTU21D;50070;-32.946;-60.652;2023-04-01T05:55:15;17.65;48.20
63899;HTU21D;50070;-32.946;-60.652;2023-04-01T05:57:44;17.62;48.84
63899;HTU21D;50070;-32.946;-60.652;2023-04-01T06:00:11;17.55;48.77
63899;HTU21D;50070;-32.946;-60.652;2023-04-01T06:02:39;17.68;48.28
63899;HTU21D;50070;-32.946;-60.652;2023-04-01T06:05:21;17.66;48.20
63899;HTU21D;50070;-32.946;-60.652;2023-04-01T06:07:48;17.60;48.35
63899;HTU21D;50070;-32.946;-60.652;2023-04-01T06:10:20;17.62;47.91
63899;HTU21D;50070;-32.946;-60.652;2023-04-01T06:13:33;17.66;48.07
63899;HTU21D;50070;-32.946;-60.652;2023-04-01T06:15:57;17.35;48.12
63899;HTU21D;50070;-32.946;-60.652;2023-04-01T06:18:48;17.52;46.89
63899;HTU21D;50070;-32.946;-60.652;2023-04-01T06:21:30;17.74;45.93
63899;HTU21D;50070;-32.946;-60.652;2023-04-01T06:36:01;17.62;45.83
63899;HTU21D;50070;-32.946;-60.652;2023-04-01T06:44:49;17.68;45.35
63899;HTU21D;50070;-32.946;-60.652;2023-04-01T06:47:42;17.88;44.77
63899;HTU21D;50070;-32.946;-60.652;2023-04-01T06:55:57;17.48;45.27
63899;HTU21D;50070;-32.946;-60.652;2023-04-01T06:58:35;17.36;46.25
63899;HTU21D;50070;-32.946;-60.652;2023-04-01T07:01:07;17.11;47.44
63899;HTU21D;50070;-32.946;-60.652;2023-04-01T07:06:04;17.44;46.84
63899;HTU21D;50070;-32.946;-60.652;2023-04-01T07:08:37;17.53;46.35
63899;HTU21D;50070;-32.946;-60.652;2023-04-01T07:11:09;17.25;47.52
63899;HTU21D;50070;-32.946;-60.652;2023-04-01T07:13:55;17.59;46.39
63899;HTU21D;50070;-32.946;-60.652;2023-04-01T07:21:41;16.91;46.90
63899;HTU21D;50070;-32.946;-60.652;2023-04-01T07:24:22;17.24;46.05
63899;HTU21D;50070;-32.946;-60.652;2023-04-01T07:26:55;17.29;46.57
63899;HTU21D;50070;-32.946;-60.652;2023-04-01T07:29:23;17.20;46.19
63899;HTU21D;50070;-32.946;-60.652;2023-04-01T07:34:34;17.45;45.16
63899;HTU21D;50070;-32.946;-60.652;2023-04-01T07:51:37;17.13;47.41
63899;HTU21D;50070;-32.946;-60.652;2023-04-01T07:56:55;17.18;46.40
63899;HTU21D;50070;-32.946;-60.652;2023-04-01T07:59:36;16.98;46.60
63899;HTU21D;50070;-32.946;-60.652;2023-04-01T08:02:35;16.85;45.29
63899;HTU21D;50070;-32.946;-60.652;2023-04-01T08:15:57;17.19;42.13
63899;HTU21D;50070;-32.946;-60.652;2023-04-01T08:21:47;17.02;41.13
63899;HTU21D;50070;-32.946;-60.652;2023-04-01T08:24:42;16.78;41.45
63899;HTU21D;50070;-32.946;-60.652;2023-04-01T08:27:23;17.01;41.71
63899;HTU21D;50070;-32.946;-60.652;2023-04-01T08:32:55;17.07;41.55
63899;HTU21D;50070;-32.946;-60.652;2023-04-01T08:35:30;16.89;42.36
63899;HTU21D;50070;-32.946;-60.652;2023-04-01T08:38:01;16.86;41.87
63899;HTU21D;50070;-32.946;-60.652;2023-04-01T09:00:37;16.91;42.28
63899;HTU21D;50070;-32.946;-60.652;2023-04-01T09:17:58;16.76;43.58
63899;HTU21D;50070;-32.946;-60.652;2023-04-01T09:31:23;16.46;45.28
63899;HTU21D;50070;-32.946;-60.652;2023-04-01T09:47:45;16.40;45.19
63899;HTU21D;50070;-32.946;-60.652;2023-04-01T10:05:40;16.55;46.76
63899;HTU21D;50070;-32.946;-60.652;2023-04-01T10:17:28;16.48;47.67
63899;HTU21D;50070;-32.946;-60.652;2023-04-01T10:45:58;16.44;48.43
63899;HTU21D;50070;-32.946;-60.652;2023-04-01T10:48:52;16.34;48.41
63899;HTU21D;50070;-32.946;-60.652;2023-04-01T10:52:31;16.30;49.02
63899;HTU21D;50070;-32.946;-60.652;2023-04-01T10:57:42;16.07;49.91
63899;HTU21D;50070;-32.946;-60.652;2023-04-01T11:32:38;16.26;50.32
63899;HTU21D;50070;-32.946;-60.652;2023-04-01T11:35:12;16.46;49.85
63899;HTU21D;50070;-32.946;-60.652;2023-04-01T11:43:41;16.39;48.02
63899;HTU21D;50070;-32.946;-60.652;2023-04-01T11:46:18;16.44;48.32
63899;HTU21D;50070;-32.946;-60.652;2023-04-01T12:06:02;16.43;48.61
63899;HTU21D;50070;-32.946;-60.652;2023-04-01T12:14:44;16.71;49.47
63899;HTU21D;50070;-32.946;-60.652;2023-04-01T12:23:06;16.66;49.18
63899;HTU21D;50070;-32.946;-60.652;2023-04-01T12:33:49;16.02;52.40
63899;HTU21D;50070;-32.946;-60.652;2023-04-01T12:41:53;16.33;51.59
63899;HTU21D;50070;-32.946;-60.652;2023-04-01T12:49:53;16.46;51.86
63899;HTU21D;50070;-32.946;-60.652;2023-04-01T13:04:32;17.19;51.62
63899;HTU21D;50070;-32.946;-60.652;2023-04-01T13:07:28;17.34;51.60
63899;HTU21D;50070;-32.946;-60.652;2023-04-01T13:10:04;17.65;50.58
63899;HTU21D;50070;-32.946;-60.652;2023-04-01T13:15:28;17.61;51.21
63899;HTU21D;50070;-32.946;-60.652;2023-04-01T13:18:07;17.98;50.21
63899;HTU21D;50070;-32.946;-60.652;2023-04-01T13:23:48;17.60;51.60
63899;HTU21D;50070;-32.946;-60.652;2023-04-01T13:31:47;18.12;50.37
63899;HTU21D;50070;-32.946;-60.652;2023-04-01T13:40:02;18.83;48.31
63899;HTU21D;50070;-32.946;-60.652;2023-04-01T13:42:40;18.72;48.67
63899;HTU21D;50070;-32.946;-60.652;2023-04-01T13:45:26;18.94;48.32
63899;HTU21D;50070;-32.946;-60.652;2023-04-01T13:53:38;18.85;48.66
63899;HTU21D;50070;-32.946;-60.652;2023-04-01T13:56:38;19.35;47.30
63899;HTU21D;50070;-32.946;-60.652;2023-04-01T14:11:25;19.36;46.51
63899;HTU21D;50070;-32.946;-60.652;2023-04-01T14:14:14;19.57;45.93
63899;HTU21D;50070;-32.946;-60.652;2023-04-01T14:17:10;19.67;45.71
63899;HTU21D;50070;-32.946;-60.652;2023-04-01T14:22:25;19.91;44.68
63899;HTU21D;50070;-32.946;-60.652;2023-04-01T14:28:42;20.14;44.17
63899;HTU21D;50070;-32.946;-60.652;2023-04-01T14:31:15;19.97;44.78
63899;HTU21D;50070;-32.946;-60.652;2023-04-01T14:37:54;20.41;44.25
63899;HTU21D;50070;-32.946;-60.652;2023-04-01T14:44:56;20.68;41.38
63899;HTU21D;50070;-32.946;-60.652;2023-04-01T14:52:42;21.05;40.72
63899;HTU21D;50070;-32.946;-60.652;2023-04-01T14:55:28;20.93;41.65
63899;HTU21D;50070;-32.946;-60.652;2023-04-01T14:58:10;21.11;41.49
63899;HTU21D;50070;-32.946;-60.652;2023-04-01T15:09:53;21.51;38.12
63899;HTU21D;50070;-32.946;-60.652;2023-04-01T15:12:26;21.79;38.42
63899;HTU21D;50070;-32.946;-60.652;2023-04-01T15:17:45;23.53;34.19
63899;HTU21D;50070;-32.946;-60.652;2023-04-01T15:32:17;22.17;34.12
63899;HTU21D;50070;-32.946;-60.652;2023-04-01T15:41:00;22.04;35.73
63899;HTU21D;50070;-32.946;-60.652;2023-04-01T15:57:15;22.25;35.49
63899;HTU21D;50070;-32.946;-60.652;2023-04-01T16:05:40;22.60;32.86
63899;HTU21D;50070;-32.946;-60.652;2023-04-01T16:16:34;23.41;30.77
63899;HTU21D;50070;-32.946;-60.652;2023-04-01T16:24:41;24.69;27.26
63899;HTU21D;50070;-32.946;-60.652;2023-04-01T16:29:50;23.94;25.49
63899;HTU21D;50070;-32.946;-60.652;2023-04-01T16:32:35;23.61;26.42
63899;HTU21D;50070;-32.946;-60.652;2023-04-01T16:37:51;24.31;23.30
63899;HTU21D;50070;-32.946;-60.652;2023-04-01T16:43:19;24.09;27.38
63899;HTU21D;50070;-32.946;-60.652;2023-04-01T16:45:55;24.03;27.35
63899;HTU21D;50070;-32.946;-60.652;2023-04-01T16:51:16;23.65;28.42
63899;HTU21D;50070;-32.946;-60.652;2023-04-01T16:56:56;23.55;28.20
63899;HTU21D;50070;-32.946;-60.652;2023-04-01T17:05:13;23.62;28.12
63899;HTU21D;50070;-32.946;-60.652;2023-04-01T17:08:17;23.51;28.97
63899;HTU21D;50070;-32.946;-60.652;2023-04-01T17:16:12;23.29;27.49
63899;HTU21D;50070;-32.946;-60.652;2023-04-01T17:18:45;23.46;27.72
63899;HTU21D;50070;-32.946;-60.652;2023-04-01T17:21:33;23.18;28.64
63899;HTU21D;50070;-32.946;-60.652;2023-04-01T17:38:03;23.64;29.16
63899;HTU21D;50070;-32.946;-60.652;2023-04-01T17:46:26;23.17;30.10
63899;HTU21D;50070;-32.946;-60.652;2023-04-01T17:49:23;23.15;30.67
63899;HTU21D;50070;-32.946;-60.652;2023-04-01T17:57:32;23.18;32.67
63899;HTU21D;50070;-32.946;-60.652;2023-04-01T18:00:30;23.64;32.19
63899;HTU21D;50070;-32.946;-60.652;2023-04-01T18:03:04;23.74;32.50
63899;HTU21D;50070;-32.946;-60.652;2023-04-01T18:11:12;23.95;32.13
63899;HTU21D;50070;-32.946;-60.652;2023-04-01T18:13:51;23.91;32.51
63899;HTU21D;50070;-32.946;-60.652;2023-04-01T18:27:06;24.13;32.60
63899;HTU21D;50070;-32.946;-60.652;2023-04-01T18:32:17;24.04;33.15
63899;HTU21D;50070;-32.946;-60.652;2023-04-01T18:37:39;24.55;32.81
63899;HTU21D;50070;-32.946;-60.652;2023-04-01T18:40:25;24.71;32.17
63899;HTU21D;50070;-32.946;-60.652;2023-04-01T18:46:22;24.65;32.35
63899;HTU21D;50070;-32.946;-60.652;2023-04-01T18:51:25;24.91;31.97
63899;HTU21D;50070;-32.946;-60.652;2023-04-01T18:54:12;24.87;31.79
63899;HTU21D;50070;-32.946;-60.652;2023-04-01T18:56:44;24.58;32.73
63899;HTU21D;50070;-32.946;-60.652;2023-04-01T18:59:42;24.39;33.25
63899;HTU21D;50070;-32.946;-60.652;2023-04-01T19:02:29;24.42;33.18
63899;HTU21D;50070;-32.946;-60.652;2023-04-01T19:05:16;24.06;32.44
63899;HTU21D;50070;-32.946;-60.652;2023-04-01T19:07:49;24.39;32.70
63899;HTU21D;50070;-32.946;-60.652;2023-04-01T19:10:46;24.17;33.19
63899;HTU21D;50070;-32.946;-60.652;2023-04-01T19:13:27;24.06;33.61
63899;HTU21D;50070;-32.946;-60.652;2023-04-01T19:16:11;23.83;32.98
63899;HTU21D;50070;-32.946;-60.652;2023-04-01T19:37:59;24.02;31.43
63899;HTU21D;50070;-32.946;-60.652;2023-04-01T19:55:18;24.02;31.33
63899;HTU21D;50070;-32.946;-60.652;2023-04-01T20:00:52;23.50;31.68
63899;HTU21D;50070;-32.946;-60.652;2023-04-01T20:09:27;23.49;33.54
63899;HTU21D;50070;-32.946;-60.652;2023-04-01T20:14:53;23.40;33.82
63899;HTU21D;50070;-32.946;-60.652;2023-04-01T20:17:41;23.71;33.77
63899;HTU21D;50070;-32.946;-60.652;2023-04-01T20:25:26;23.88;32.93
63899;HTU21D;50070;-32.946;-60.652;2023-04-01T20:53:15;23.84;34.12
63899;HTU21D;50070;-32.946;-60.652;2023-04-01T20:58:41;23.83;34.55
63899;HTU21D;50070;-32.946;-60.652;2023-04-01T21:04:36;23.69;36.26
63899;HTU21D;50070;-32.946;-60.652;2023-04-01T21:07:24;23.73;36.17
63899;HTU21D;50070;-32.946;-60.652;2023-04-01T21:10:26;23.73;36.43
63899;HTU21D;50070;-32.946;-60.652;2023-04-01T21:21:45;23.66;37.31
63899;HTU21D;50070;-32.946;-60.652;2023-04-01T21:26:57;23.26;38.33
63899;HTU21D;50070;-32.946;-60.652;2023-04-01T21:32:27;23.28;37.91
63899;HTU21D;50070;-32.946;-60.652;2023-04-01T21:37:54;23.22;38.78
63899;HTU21D;50070;-32.946;-60.652;2023-04-01T21:49:15;23.18;38.85
63899;HTU21D;50070;-32.946;-60.652;2023-04-01T22:06:16;23.16;39.35
63899;HTU21D;50070;-32.946;-60.652;2023-04-01T22:08:48;23.36;38.98
63899;HTU21D;50070;-32.946;-60.652;2023-04-01T22:19:41;23.39;38.80
63899;HTU21D;50070;-32.946;-60.652;2023-04-01T22:22:20;23.22;39.16
63899;HTU21D;50070;-32.946;-60.652;2023-04-01T22:24:57;23.36;38.95
63899;HTU21D;50070;-32.946;-60.652;2023-04-01T22:30:27;23.05;39.92
63899;HTU21D;50070;-32.946;-60.652;2023-04-01T22:41:59;22.97;40.68
63899;HTU21D;50070;-32.946;-60.652;2023-04-01T22:44:47;23.05;40.62
63899;HTU21D;50070;-32.946;-60.652;2023-04-01T22:50:15;23.00;40.53
63899;HTU21D;50070;-32.946;-60.652;2023-04-01T22:52:47;22.94;40.81
63899;HTU21D;50070;-32.946;-60.652;2023-04-01T22:55:27;22.84;40.88
63899;HTU21D;50070;-32.946;-60.652;2023-04-01T22:58:03;23.00;40.70
63899;HTU21D;50070;-32.946;-60.652;2023-04-01T23:00:35;23.14;40.32
63899;HTU21D;50070;-32.946;-60.652;2023-04-01T23:05:52;23.25;40.33
63899;HTU21D;50070;-32.946;-60.652;2023-04-01T23:19:40;23.10;41.90
63899;HTU21D;50070;-32.946;-60.652;2023-04-01T23:22:22;23.12;41.90
63899;HTU21D;50070;-32.946;-60.652;2023-04-01T23:25:15;23.09;42.10
63899;HTU21D;50070;-32.946;-60.652;2023-04-01T23:36:00;22.98;42.93
63899;HTU21D;50070;-32.946;-60.652;2023-04-01T23:38:41;22.91;43.01
63899;HTU21D;50070;-32.946;-60.652;2023-04-01T23:41:25;22.90;42.88
63899;HTU21D;50070;-32.946;-60.652;2023-04-01T23:44:09;22.84;43.29
63899;HTU21D;50070;-32.946;-60.652;2023-04-01T23:46:39;22.80;43.29
63899;HTU21D;50070;-32.946;-60.652;2023-04-01T23:49:21;22.78;43.55
63899;HTU21D;50070;-32.946;-60.652;2023-04-01T23:52:17;22.81;43.77
63899;HTU21D;50070;-32.946;-60.652;2023-04-01T23:54:49;22.56;45.15
63899;HTU21D;50070;-32.946;-60.652;2023-04-01T23:57:22;22.70;44.99
